KDCU/DCU METAR and TAF weather

Enter ICAO airport designator
Station Type Date Time Source
KDCU METAR 2018/10/19 14:53 UTC NOAA

KDCU 191453Z AUTO 14009KT 10SM CLR 16/11 A3029 RMK AO2 SLP255 T01610111 50002


Station Type Date Time Source
KDCU Decoded METAR 2018/10/19 14:53 UTC NOAA

PRYOR FIELD, AL, United States (KDCU) 34-39N 086-57W 176M
Oct 19, 2018 - 10:53 AM EDT / 2018.10.19 1453 UTC
Wind: from the SE (140 degrees) at 10 MPH (9 KT):0
Visibility: 10 mile(s):0
Sky conditions: clear
Temperature: 61.0 F (16.1 C)
Dew Point: 52.0 F (11.1 C)
Relative Humidity: 72%
Pressure (altimeter): 30.29 in. Hg (1025 hPa)
Pressure tendency: 0.01 inches (0.2 hPa) higher than three hours ago
ob: KDCU 191453Z AUTO 14009KT 10SM CLR 16/11 A3029 RMK AO2 SLP255 T01610111 50002
cycle: 15

Station Type Date Time Source
KDCU TAF UTC NOAA

Error!


Example: see airport list